createdAt,value
2023-01-12T00:01:57.287Z,9.03
2023-01-12T00:04:25.403Z,7.93
2023-01-12T00:06:53.753Z,7.30
2023-01-12T00:09:21.532Z,7.63
2023-01-12T00:11:50.731Z,7.50
2023-01-12T00:14:18.445Z,8.00
2023-01-12T00:16:46.174Z,7.97
2023-01-12T00:19:15.713Z,7.50
2023-01-12T00:21:54.128Z,7.40
2023-01-12T00:24:21.888Z,7.27
2023-01-12T00:26:51.025Z,7.87
2023-01-12T00:29:19.239Z,6.90
2023-01-12T00:31:47.333Z,7.63
2023-01-12T00:34:16.134Z,7.33
2023-01-12T00:36:44.077Z,7.17
2023-01-12T00:39:11.911Z,7.07
2023-01-12T00:41:57.187Z,7.73
2023-01-12T00:44:43.717Z,7.43
2023-01-12T00:47:11.892Z,7.67
2023-01-12T00:49:41.099Z,7.20
2023-01-12T00:52:11.352Z,9.17
2023-01-12T00:54:41.165Z,8.03
2023-01-12T00:57:09.699Z,7.00
2023-01-12T00:59:38.813Z,7.60
2023-01-12T01:02:06.687Z,6.30
2023-01-12T01:04:35.661Z,6.47
2023-01-12T01:07:03.788Z,6.30
2023-01-12T01:09:31.874Z,6.27
2023-01-12T01:11:59.698Z,6.73
2023-01-12T01:14:27.452Z,6.20
2023-01-12T01:16:56.533Z,7.50
2023-01-12T01:19:24.305Z,7.30
2023-01-12T01:21:52.059Z,6.83
2023-01-12T01:24:19.771Z,6.33
2023-01-12T01:26:47.462Z,6.30
2023-01-12T01:29:15.189Z,6.30
2023-01-12T01:31:42.887Z,7.00
2023-01-12T01:34:11.999Z,5.93
2023-01-12T01:36:40.020Z,6.30
2023-01-12T01:39:07.746Z,6.20
2023-01-12T01:41:35.481Z,6.60
2023-01-12T01:44:05.453Z,6.40
2023-01-12T01:46:37.954Z,6.20
2023-01-12T01:49:27.316Z,6.40
2023-01-12T01:51:58.335Z,6.30
2023-01-12T01:54:26.267Z,6.10
2023-01-12T01:56:56.508Z,5.67
2023-01-12T01:59:27.070Z,6.23
2023-01-12T02:01:55.541Z,6.07
2023-01-12T02:04:25.651Z,5.77
2023-01-12T02:06:53.885Z,6.40
2023-01-12T02:09:23.936Z,6.60
2023-01-12T02:12:09.244Z,6.20
2023-01-12T02:14:54.501Z,6.60
2023-01-12T02:17:36.000Z,5.83
2023-01-12T02:20:35.587Z,6.70
2023-01-12T02:23:22.384Z,6.40
2023-01-12T02:26:25.184Z,6.33
2023-01-12T02:29:05.015Z,5.93
2023-01-12T02:31:44.596Z,5.80
2023-01-12T02:34:24.555Z,6.23
2023-01-12T02:36:58.466Z,6.57
2023-01-12T02:39:30.976Z,6.03
2023-01-12T02:42:23.816Z,6.10
2023-01-12T02:44:56.053Z,6.10
2023-01-12T02:47:29.112Z,6.23
2023-01-12T02:50:00.505Z,6.10
2023-01-12T02:52:31.313Z,5.60
2023-01-12T02:55:00.165Z,5.33
2023-01-12T02:57:29.397Z,6.57
2023-01-12T02:59:57.917Z,5.87
2023-01-12T03:02:27.726Z,5.50
2023-01-12T03:04:55.506Z,6.00
2023-01-12T03:07:33.093Z,5.63
2023-01-12T03:10:04.102Z,5.63
2023-01-12T03:12:34.580Z,5.73
2023-01-12T03:15:04.919Z,5.97
2023-01-12T03:17:35.832Z,5.77
2023-01-12T03:20:08.728Z,5.60
2023-01-12T03:22:38.075Z,5.60
2023-01-12T03:25:10.314Z,5.90
2023-01-12T03:27:40.504Z,5.57
2023-01-12T03:30:14.899Z,4.97
2023-01-12T03:32:44.020Z,4.97
2023-01-12T03:35:13.066Z,4.87
2023-01-12T03:37:45.959Z,4.37
2023-01-12T03:40:16.966Z,4.33
2023-01-12T03:42:48.132Z,3.80
2023-01-12T03:45:22.511Z,3.67
2023-01-12T03:47:55.335Z,3.93
2023-01-12T03:50:25.375Z,4.23
2023-01-12T03:52:55.353Z,3.80
2023-01-12T03:55:24.293Z,3.70
2023-01-12T03:57:52.404Z,4.10
2023-01-12T04:00:22.347Z,3.53
2023-01-12T04:02:51.709Z,3.30
2023-01-12T04:05:19.357Z,3.80
2023-01-12T04:07:47.009Z,3.43
2023-01-12T04:10:14.656Z,3.30
2023-01-12T04:12:46.352Z,3.47
2023-01-12T04:15:14.194Z,3.80
2023-01-12T04:17:42.187Z,3.43
2023-01-12T04:20:12.906Z,3.10
2023-01-12T04:22:45.261Z,3.60
2023-01-12T04:25:13.344Z,3.67
2023-01-12T04:27:47.398Z,3.37
2023-01-12T04:30:16.076Z,3.17
2023-01-12T04:32:44.141Z,3.67
2023-01-12T04:35:13.596Z,3.80
2023-01-12T04:37:41.764Z,3.70
2023-01-12T04:40:11.570Z,3.80
2023-01-12T04:42:57.425Z,3.67
2023-01-12T04:45:25.426Z,3.47
2023-01-12T04:47:53.118Z,3.07
2023-01-12T04:50:22.127Z,3.37
2023-01-12T04:52:49.811Z,3.40
2023-01-12T04:55:17.643Z,3.67
2023-01-12T04:57:47.093Z,4.07
2023-01-12T05:00:15.126Z,3.73
2023-01-12T05:02:42.754Z,4.30
2023-01-12T05:05:10.971Z,3.97
2023-01-12T05:08:01.026Z,3.70
2023-01-12T05:10:30.047Z,3.67
2023-01-12T05:12:58.176Z,3.90
2023-01-12T05:15:27.587Z,3.93
2023-01-12T05:17:55.267Z,4.13
2023-01-12T05:20:23.006Z,4.27
2023-01-12T05:22:52.729Z,3.77
2023-01-12T05:25:20.534Z,3.80
2023-01-12T05:27:48.556Z,3.80
2023-01-12T05:30:17.167Z,3.93
2023-01-12T05:32:46.090Z,4.07
2023-01-12T05:35:13.831Z,4.63
2023-01-12T05:37:41.573Z,4.30
2023-01-12T05:40:12.124Z,4.20
2023-01-12T05:42:53.841Z,3.90
2023-01-12T05:45:21.595Z,4.10
2023-01-12T05:47:49.357Z,3.90
2023-01-12T05:50:17.196Z,4.17
2023-01-12T05:52:44.874Z,3.93
2023-01-12T05:55:13.968Z,4.53
2023-01-12T05:57:41.649Z,4.40
2023-01-12T06:00:10.611Z,4.50
2023-01-12T06:02:38.458Z,4.47
2023-01-12T06:05:09.378Z,4.30
2023-01-12T06:07:37.318Z,4.40
2023-01-12T06:10:05.716Z,4.90
2023-01-12T06:12:51.990Z,4.27
2023-01-12T06:15:19.699Z,4.40
2023-01-12T06:17:47.374Z,4.10
2023-01-12T06:20:17.317Z,4.30
2023-01-12T06:22:45.395Z,3.87
2023-01-12T06:25:13.603Z,4.40
2023-01-12T06:27:42.624Z,5.50
2023-01-12T06:30:11.700Z,5.10
2023-01-12T06:32:41.516Z,5.50
2023-01-12T06:35:18.759Z,5.43
2023-01-12T06:37:47.426Z,5.70
2023-01-12T06:40:15.121Z,5.07
2023-01-12T06:42:44.587Z,5.00
2023-01-12T06:45:12.687Z,5.73
2023-01-12T06:47:46.939Z,5.57
2023-01-12T06:50:14.960Z,5.80
2023-01-12T06:52:43.074Z,5.70
2023-01-12T06:55:11.651Z,5.63
2023-01-12T06:57:39.437Z,6.60
2023-01-12T07:00:12.016Z,6.73
2023-01-12T07:02:39.669Z,7.13
2023-01-12T07:05:07.974Z,6.13
2023-01-12T07:07:39.278Z,6.87
2023-01-12T07:10:08.233Z,7.13
2023-01-12T07:12:35.925Z,7.30
2023-01-12T07:15:03.918Z,7.30
2023-01-12T07:17:33.218Z,7.73
2023-01-12T07:20:00.921Z,7.47
2023-01-12T07:22:30.361Z,7.60
2023-01-12T07:24:58.076Z,7.53
2023-01-12T07:27:25.901Z,8.63
2023-01-12T07:29:53.848Z,8.43
2023-01-12T07:32:21.893Z,8.37
2023-01-12T07:34:50.935Z,8.67
2023-01-12T07:37:18.615Z,8.53
2023-01-12T07:39:46.288Z,8.37
2023-01-12T07:42:26.038Z,8.20
2023-01-12T07:44:54.087Z,7.57
2023-01-12T07:47:22.238Z,8.13
2023-01-12T07:49:51.283Z,8.57
2023-01-12T07:52:19.023Z,8.60
2023-01-12T07:54:46.733Z,7.67
2023-01-12T07:57:14.550Z,8.47
2023-01-12T07:59:42.227Z,6.77
2023-01-12T08:02:16.373Z,7.20
2023-01-12T08:04:44.238Z,7.67
2023-01-12T08:07:13.626Z,6.73
2023-01-12T08:09:41.384Z,6.50
2023-01-12T08:12:09.116Z,6.33
2023-01-12T08:14:38.546Z,6.43
2023-01-12T08:17:09.136Z,5.43
2023-01-12T08:19:41.075Z,5.80
2023-01-12T08:22:12.295Z,6.17
2023-01-12T08:24:45.208Z,5.70
2023-01-12T08:27:12.980Z,5.30
2023-01-12T08:29:44.177Z,5.03
2023-01-12T08:32:13.815Z,5.23
2023-01-12T08:34:43.622Z,5.10
2023-01-12T08:37:14.373Z,5.23
2023-01-12T08:39:44.514Z,5.43
2023-01-12T08:42:13.484Z,6.27
2023-01-12T08:44:41.249Z,6.63
2023-01-12T08:47:17.100Z,6.97
2023-01-12T08:49:45.031Z,6.93
2023-01-12T08:52:12.823Z,6.77
2023-01-12T08:54:40.739Z,6.60
2023-01-12T08:57:09.878Z,6.10
2023-01-12T08:59:37.682Z,5.70
2023-01-12T09:02:06.227Z,5.73
2023-01-12T09:04:33.943Z,5.47
2023-01-12T09:07:01.666Z,4.90
2023-01-12T09:09:29.439Z,4.67
2023-01-12T09:11:57.180Z,4.53
2023-01-12T09:14:26.676Z,4.13
2023-01-12T09:16:55.874Z,3.93
2023-01-12T09:19:23.979Z,3.90
2023-01-12T09:21:51.749Z,3.60
2023-01-12T09:24:19.406Z,3.50
2023-01-12T09:26:47.676Z,3.70
2023-01-12T09:29:16.095Z,3.50
2023-01-12T09:31:48.019Z,3.60
2023-01-12T09:34:15.940Z,3.17
2023-01-12T09:36:44.682Z,3.40
2023-01-12T09:39:26.931Z,3.80
2023-01-12T09:42:13.096Z,3.63
2023-01-12T09:45:00.105Z,3.87
2023-01-12T09:47:33.895Z,3.70
2023-01-12T09:50:09.337Z,3.57
2023-01-12T09:52:40.783Z,3.37
2023-01-12T09:55:13.358Z,3.00
2023-01-12T09:58:07.738Z,3.43
2023-01-12T10:00:35.451Z,3.03
2023-01-12T10:03:14.605Z,2.80
2023-01-12T10:05:46.202Z,2.93
2023-01-12T10:08:17.998Z,2.90
2023-01-12T10:10:58.407Z,3.70
2023-01-12T10:13:33.072Z,4.07
2023-01-12T10:16:04.090Z,4.10
2023-01-12T10:18:37.213Z,4.00
2023-01-12T10:21:10.547Z,4.03
2023-01-12T10:23:38.514Z,4.40
2023-01-12T10:26:14.973Z,3.90
2023-01-12T10:28:44.721Z,3.80
2023-01-12T10:31:17.556Z,4.40
2023-01-12T10:34:03.075Z,3.63
2023-01-12T10:36:31.302Z,3.87
2023-01-12T10:39:03.176Z,4.03
2023-01-12T10:41:31.777Z,4.17
2023-01-12T10:44:15.202Z,4.40
2023-01-12T10:46:43.443Z,4.70
2023-01-12T10:49:19.143Z,4.83
2023-01-12T10:51:52.244Z,5.60
2023-01-12T10:54:21.283Z,5.07
2023-01-12T10:56:56.585Z,5.97
2023-01-12T10:59:28.690Z,5.63
2023-01-12T11:02:14.088Z,5.60
2023-01-12T11:04:45.155Z,5.33
2023-01-12T11:07:14.263Z,5.40
2023-01-12T11:09:43.994Z,5.50
2023-01-12T11:12:24.613Z,4.90
2023-01-12T11:15:00.813Z,4.70
2023-01-12T11:17:44.635Z,4.40
2023-01-12T11:20:20.187Z,4.30
2023-01-12T11:22:48.915Z,4.63
2023-01-12T11:25:20.520Z,4.30
2023-01-12T11:27:49.226Z,4.57
2023-01-12T11:30:20.847Z,4.07
2023-01-12T11:32:51.306Z,4.30
2023-01-12T11:35:27.864Z,4.00
2023-01-12T11:37:59.230Z,3.80
2023-01-12T11:40:30.953Z,3.30
2023-01-12T11:43:22.820Z,3.57
2023-01-12T11:45:54.392Z,3.47
2023-01-12T11:48:27.386Z,3.90
2023-01-12T11:50:57.214Z,4.33
2023-01-12T11:53:26.234Z,3.70
2023-01-12T11:56:07.157Z,4.40
2023-01-12T11:58:40.015Z,3.87
2023-01-12T12:01:14.431Z,4.37
2023-01-12T12:04:02.913Z,4.60
2023-01-12T12:06:44.517Z,4.33
2023-01-12T12:09:28.276Z,5.20
2023-01-12T12:11:58.707Z,5.30
2023-01-12T12:14:42.516Z,4.87
2023-01-12T12:17:15.511Z,4.90
2023-01-12T12:19:50.727Z,4.70
2023-01-12T12:22:28.249Z,4.77
2023-01-12T12:25:09.759Z,4.17
2023-01-12T12:27:50.887Z,4.23
2023-01-12T12:30:49.688Z,3.57
2023-01-12T12:33:24.724Z,3.67
2023-01-12T12:36:09.249Z,3.77
2023-01-12T12:38:50.783Z,4.00
2023-01-12T12:41:44.862Z,3.57
2023-01-12T12:44:43.534Z,3.27
2023-01-12T12:47:30.837Z,3.30
2023-01-12T12:50:00.923Z,3.33
2023-01-12T12:52:30.756Z,3.47
2023-01-12T12:55:00.029Z,3.43
2023-01-12T12:57:27.726Z,3.50
2023-01-12T12:59:56.892Z,3.47
2023-01-12T13:02:38.926Z,3.53
2023-01-12T13:05:09.033Z,3.47
2023-01-12T13:07:42.636Z,3.40
2023-01-12T13:10:32.167Z,3.30
2023-01-12T13:13:04.284Z,3.17
2023-01-12T13:15:37.012Z,2.80
2023-01-12T13:18:07.067Z,3.43
2023-01-12T13:20:39.685Z,2.97
2023-01-12T13:23:40.527Z,2.97
2023-01-12T13:26:25.160Z,3.40
2023-01-12T13:29:22.631Z,3.77
2023-01-12T13:31:50.779Z,3.80
2023-01-12T13:34:31.039Z,3.97
2023-01-12T13:37:08.201Z,4.03
2023-01-12T13:39:38.020Z,4.87
2023-01-12T13:42:32.208Z,4.87
2023-01-12T13:44:59.956Z,5.23
2023-01-12T13:47:31.663Z,5.63
2023-01-12T13:50:01.660Z,6.23
2023-01-12T13:52:30.778Z,7.33
2023-01-12T13:54:58.907Z,7.13
2023-01-12T13:57:29.064Z,6.50
2023-01-12T13:59:58.304Z,7.00
2023-01-12T14:02:26.659Z,6.53
2023-01-12T14:05:05.655Z,7.53
2023-01-12T14:07:47.228Z,7.00
2023-01-12T14:10:26.108Z,6.93
2023-01-12T14:13:08.609Z,7.50
2023-01-12T14:15:55.760Z,7.83
2023-01-12T14:18:25.596Z,7.80
2023-01-12T14:20:54.314Z,8.70
2023-01-12T14:23:24.698Z,7.80
2023-01-12T14:26:05.901Z,7.20
2023-01-12T14:28:35.268Z,7.77
2023-01-12T14:31:03.726Z,8.00
2023-01-12T14:33:34.566Z,7.83
2023-01-12T14:36:05.292Z,7.97
2023-01-12T14:38:35.074Z,7.67
2023-01-12T14:41:05.511Z,8.00
2023-01-12T14:43:53.945Z,8.13
2023-01-12T14:46:29.238Z,7.70
2023-01-12T14:48:59.102Z,7.87
2023-01-12T14:51:30.035Z,8.20
2023-01-12T14:54:01.481Z,8.07
2023-01-12T14:56:33.430Z,8.63
2023-01-12T14:59:16.320Z,8.03
2023-01-12T15:01:44.790Z,7.93
2023-01-12T15:04:19.142Z,8.30
2023-01-12T15:06:47.379Z,7.97
2023-01-12T15:09:27.867Z,8.50
2023-01-12T15:11:55.611Z,8.80
2023-01-12T15:14:26.585Z,8.20
2023-01-12T15:17:12.491Z,8.03
2023-01-12T15:19:58.398Z,8.20
2023-01-12T15:22:46.170Z,8.03
2023-01-12T15:25:37.003Z,9.17
2023-01-12T15:28:06.474Z,8.80
2023-01-12T15:30:38.323Z,8.73
2023-01-12T15:33:07.753Z,9.33
2023-01-12T15:35:35.563Z,9.43
2023-01-12T15:38:03.379Z,9.67
2023-01-12T15:40:31.918Z,10.40
2023-01-12T15:42:59.923Z,11.10
2023-01-12T15:45:34.532Z,11.20
2023-01-12T15:48:04.103Z,12.50
2023-01-12T15:50:32.144Z,11.53
2023-01-12T15:53:00.881Z,11.40
2023-01-12T15:55:31.189Z,11.47
2023-01-12T15:57:59.390Z,12.20
2023-01-12T16:00:27.216Z,11.00
2023-01-12T16:02:54.934Z,11.40
2023-01-12T16:05:27.208Z,10.97
2023-01-12T16:07:55.134Z,11.67
2023-01-12T16:10:22.844Z,10.57
2023-01-12T16:12:50.518Z,11.77
2023-01-12T16:15:19.921Z,11.57
2023-01-12T16:17:47.921Z,10.33
2023-01-12T16:20:17.505Z,12.00
2023-01-12T16:22:47.758Z,11.80
2023-01-12T16:25:15.905Z,13.23
2023-01-12T16:27:43.616Z,12.67
2023-01-12T16:30:15.248Z,13.27
2023-01-12T16:32:46.597Z,13.33
2023-01-12T16:35:15.880Z,17.60
2023-01-12T16:37:44.722Z,16.83
2023-01-12T16:40:14.591Z,15.63
2023-01-12T16:42:42.381Z,15.23
2023-01-12T16:45:11.048Z,16.07
2023-01-12T16:47:38.821Z,15.30
2023-01-12T16:50:07.332Z,14.63
2023-01-12T16:52:35.304Z,13.73
2023-01-12T16:55:04.891Z,15.27
2023-01-12T16:57:37.312Z,14.40
2023-01-12T17:00:05.691Z,15.50
2023-01-12T17:02:33.611Z,15.00
2023-01-12T17:05:01.797Z,15.17
2023-01-12T17:07:30.029Z,14.97
2023-01-12T17:09:59.119Z,16.47
2023-01-12T17:12:26.933Z,13.40
2023-01-12T17:14:57.635Z,13.27
2023-01-12T17:17:25.625Z,13.97
2023-01-12T17:19:56.538Z,13.63
2023-01-12T17:22:25.036Z,13.67
2023-01-12T17:24:53.008Z,15.03
2023-01-12T17:27:20.860Z,15.40
2023-01-12T17:29:49.001Z,15.53
2023-01-12T17:32:18.601Z,16.23
2023-01-12T17:34:47.916Z,17.13
2023-01-12T17:37:16.485Z,16.93
2023-01-12T17:39:44.251Z,17.40
2023-01-12T17:42:30.267Z,18.30
2023-01-12T17:44:57.984Z,18.67
2023-01-12T17:47:27.063Z,20.63
2023-01-12T17:49:55.467Z,19.80
2023-01-12T17:52:23.215Z,23.90
2023-01-12T17:54:50.956Z,27.77
2023-01-12T17:57:18.642Z,30.47
2023-01-12T17:59:46.433Z,29.80
2023-01-12T18:02:15.252Z,29.07
2023-01-12T18:04:44.480Z,28.20
2023-01-12T18:07:12.242Z,29.23
2023-01-12T18:09:39.917Z,30.10
2023-01-12T18:12:07.932Z,29.30
2023-01-12T18:14:35.866Z,29.70
2023-01-12T18:17:03.554Z,28.77
2023-01-12T18:19:31.619Z,29.33
2023-01-12T18:22:05.817Z,31.93
2023-01-12T18:24:33.981Z,32.33
2023-01-12T18:27:02.355Z,32.83
2023-01-12T18:29:30.400Z,32.53
2023-01-12T18:31:58.057Z,30.73
2023-01-12T18:34:25.963Z,31.97
2023-01-12T18:36:53.605Z,30.83
2023-01-12T18:39:22.697Z,32.53
2023-01-12T18:42:08.583Z,31.73
2023-01-12T18:44:38.022Z,31.70
2023-01-12T18:47:23.471Z,33.13
2023-01-12T18:49:51.843Z,33.13
2023-01-12T18:52:37.306Z,33.57
2023-01-12T18:55:07.325Z,36.87
2023-01-12T18:57:35.857Z,36.53
2023-01-12T19:00:17.862Z,35.00
2023-01-12T19:02:46.943Z,34.13
2023-01-12T19:05:22.063Z,34.73
2023-01-12T19:08:05.112Z,33.43
2023-01-12T19:10:35.092Z,32.60
2023-01-12T19:13:20.364Z,33.27
2023-01-12T19:16:05.747Z,33.70
2023-01-12T19:18:35.473Z,31.93
2023-01-12T19:21:17.066Z,33.33
2023-01-12T19:24:02.072Z,31.27
2023-01-12T19:26:48.586Z,32.10
2023-01-12T19:29:16.332Z,30.83
2023-01-12T19:31:44.019Z,31.23
2023-01-12T19:34:11.764Z,33.13
2023-01-12T19:36:41.488Z,32.33
2023-01-12T19:39:10.473Z,32.23
2023-01-12T19:41:57.070Z,33.90
2023-01-12T19:44:24.783Z,31.30
2023-01-12T19:46:52.467Z,30.50
2023-01-12T19:49:20.131Z,28.73
2023-01-12T19:51:48.760Z,28.80
2023-01-12T19:54:16.810Z,29.77
2023-01-12T19:56:48.507Z,27.00
2023-01-12T19:59:16.196Z,26.93
2023-01-12T20:01:44.011Z,25.17
2023-01-12T20:04:11.740Z,26.53
2023-01-12T20:06:39.445Z,25.97
2023-01-12T20:09:07.106Z,24.90
2023-01-12T20:11:36.215Z,24.63
2023-01-12T20:14:05.378Z,24.10
2023-01-12T20:16:33.703Z,24.37
2023-01-12T20:19:03.899Z,25.50
2023-01-12T20:21:31.605Z,24.43
2023-01-12T20:23:59.330Z,26.40
2023-01-12T20:26:26.994Z,26.57
2023-01-12T20:28:54.670Z,28.07
2023-01-12T20:31:23.758Z,29.83
2023-01-12T20:33:51.409Z,27.53
2023-01-12T20:36:19.303Z,26.83
2023-01-12T20:38:47.714Z,29.63
2023-01-12T20:41:15.436Z,26.83
2023-01-12T20:43:43.196Z,25.13
2023-01-12T20:46:12.432Z,25.97
2023-01-12T20:48:42.671Z,26.90
2023-01-12T20:51:11.867Z,28.20
2023-01-12T20:53:39.823Z,28.50
2023-01-12T20:56:08.136Z,29.30
2023-01-12T20:58:36.237Z,28.23
2023-01-12T21:01:09.577Z,30.20
2023-01-12T21:03:37.492Z,27.77
2023-01-12T21:06:10.271Z,29.93
2023-01-12T21:08:39.070Z,29.43
2023-01-12T21:11:07.185Z,29.20
2023-01-12T21:13:34.843Z,27.90
2023-01-12T21:16:04.121Z,29.23
2023-01-12T21:18:32.467Z,26.33
2023-01-12T21:21:00.382Z,26.37
2023-01-12T21:23:29.528Z,25.70
2023-01-12T21:25:57.221Z,26.47
2023-01-12T21:28:25.019Z,27.33
2023-01-12T21:30:54.283Z,27.73
2023-01-12T21:33:22.055Z,26.57
2023-01-12T21:35:55.724Z,27.13
2023-01-12T21:38:24.061Z,26.57
2023-01-12T21:40:53.482Z,27.50
2023-01-12T21:43:21.196Z,27.40
2023-01-12T21:45:50.293Z,29.40
2023-01-12T21:48:19.333Z,28.03
2023-01-12T21:50:47.391Z,30.47
2023-01-12T21:53:16.146Z,30.63
2023-01-12T21:55:43.827Z,30.83
2023-01-12T21:58:12.892Z,30.97
2023-01-12T22:00:40.565Z,31.03
2023-01-12T22:03:08.289Z,31.73
2023-01-12T22:05:36.050Z,30.13
2023-01-12T22:08:03.922Z,28.37
2023-01-12T22:10:32.063Z,28.83
2023-01-12T22:13:02.700Z,27.23
2023-01-12T22:15:31.703Z,27.67
2023-01-12T22:17:59.758Z,26.53
2023-01-12T22:20:28.768Z,29.00
2023-01-12T22:22:56.516Z,28.10
2023-01-12T22:25:24.238Z,27.50
2023-01-12T22:27:51.976Z,27.93
2023-01-12T22:30:21.690Z,27.93
2023-01-12T22:32:53.310Z,27.60
2023-01-12T22:35:20.997Z,27.83
2023-01-12T22:37:49.135Z,26.40
2023-01-12T22:40:16.971Z,27.10
2023-01-12T22:43:02.469Z,25.93
2023-01-12T22:45:30.397Z,26.07
2023-01-12T22:47:59.427Z,25.83
2023-01-12T22:50:27.068Z,26.40
2023-01-12T22:52:55.815Z,26.03
2023-01-12T22:55:24.221Z,26.83
2023-01-12T22:57:51.935Z,25.57
2023-01-12T23:00:20.789Z,24.37
2023-01-12T23:03:03.592Z,24.33
2023-01-12T23:05:36.064Z,24.13
2023-01-12T23:08:04.466Z,24.53
2023-01-12T23:10:32.504Z,23.93
2023-01-12T23:13:16.005Z,23.33
2023-01-12T23:15:49.209Z,24.13
2023-01-12T23:18:18.810Z,22.17
2023-01-12T23:20:48.448Z,24.07
2023-01-12T23:23:18.030Z,24.63
2023-01-12T23:25:46.853Z,24.13
2023-01-12T23:28:15.612Z,22.30
2023-01-12T23:30:43.368Z,20.53
2023-01-12T23:33:11.510Z,21.80
2023-01-12T23:35:40.617Z,19.97
2023-01-12T23:38:14.559Z,20.53
2023-01-12T23:40:42.260Z,18.73
2023-01-12T23:43:10.019Z,21.40
2023-01-12T23:45:37.783Z,20.03
2023-01-12T23:48:07.582Z,19.33
2023-01-12T23:50:35.365Z,19.47
2023-01-12T23:53:03.038Z,19.43
2023-01-12T23:55:32.083Z,18.23
2023-01-12T23:57:59.823Z,18.00
